sensor_id;sensor_type;location;lat;lon;timestamp;temperature;humidity
10468;DHT22;5281;48.878;9.394;2023-08-30T00:01:41;14.10;99.90
10468;DHT22;5281;48.878;9.394;2023-08-30T00:04:08;14.10;99.90
10468;DHT22;5281;48.878;9.394;2023-08-30T00:06:35;14.10;99.90
10468;DHT22;5281;48.878;9.394;2023-08-30T00:09:02;14.20;99.90
10468;DHT22;5281;48.878;9.394;2023-08-30T00:11:29;14.20;99.90
10468;DHT22;5281;48.878;9.394;2023-08-30T00:14:04;14.30;99.90
10468;DHT22;5281;48.878;9.394;2023-08-30T00:16:31;14.40;99.90
10468;DHT22;5281;48.878;9.394;2023-08-30T00:18:58;14.40;99.90
10468;DHT22;5281;48.878;9.394;2023-08-30T00:21:25;14.50;99.90
10468;DHT22;5281;48.878;9.394;2023-08-30T00:23:52;14.50;99.90
10468;DHT22;5281;48.878;9.394;2023-08-30T00:26:19;14.60;99.90
10468;DHT22;5281;48.878;9.394;2023-08-30T00:28:46;14.50;99.90
10468;DHT22;5281;48.878;9.394;2023-08-30T00:31:14;14.70;99.90
10468;DHT22;5281;48.878;9.394;2023-08-30T00:33:40;14.70;99.90
10468;DHT22;5281;48.878;9.394;2023-08-30T00:36:07;14.70;99.90
10468;DHT22;5281;48.878;9.394;2023-08-30T00:38:34;14.80;99.90
10468;DHT22;5281;48.878;9.394;2023-08-30T00:41:00;14.80;99.90
10468;DHT22;5281;48.878;9.394;2023-08-30T00:43:27;14.70;99.90
10468;DHT22;5281;48.878;9.394;2023-08-30T00:45:54;14.60;99.90
10468;DHT22;5281;48.878;9.394;2023-08-30T00:48:22;14.40;99.90
10468;DHT22;5281;48.878;9.394;2023-08-30T00:50:49;14.30;99.90
10468;DHT22;5281;48.878;9.394;2023-08-30T00:53:16;14.20;99.90
10468;DHT22;5281;48.878;9.394;2023-08-30T00:55:43;14.20;99.90
10468;DHT22;5281;48.878;9.394;2023-08-30T00:58:11;14.20;99.90
10468;DHT22;5281;48.878;9.394;2023-08-30T01:00:38;14.20;99.90
10468;DHT22;5281;48.878;9.394;2023-08-30T01:03:06;14.30;99.90
10468;DHT22;5281;48.878;9.394;2023-08-30T01:05:35;14.30;99.90
10468;DHT22;5281;48.878;9.394;2023-08-30T01:08:02;14.30;99.90
10468;DHT22;5281;48.878;9.394;2023-08-30T01:10:44;14.20;99.90
10468;DHT22;5281;48.878;9.394;2023-08-30T01:13:15;14.10;99.90
10468;DHT22;5281;48.878;9.394;2023-08-30T01:15:46;14.10;99.90
10468;DHT22;5281;48.878;9.394;2023-08-30T01:18:16;14.00;99.90
10468;DHT22;5281;48.878;9.394;2023-08-30T01:20:46;13.90;99.90
10468;DHT22;5281;48.878;9.394;2023-08-30T01:23:22;13.90;99.90
10468;DHT22;5281;48.878;9.394;2023-08-30T01:25:57;13.80;99.90
10468;DHT22;5281;48.878;9.394;2023-08-30T01:28:28;13.80;99.90
10468;DHT22;5281;48.878;9.394;2023-08-30T01:30:57;13.80;99.90
10468;DHT22;5281;48.878;9.394;2023-08-30T01:33:25;13.80;99.90
10468;DHT22;5281;48.878;9.394;2023-08-30T01:35:53;13.80;99.90
10468;DHT22;5281;48.878;9.394;2023-08-30T01:38:20;13.70;99.90
10468;DHT22;5281;48.878;9.394;2023-08-30T01:40:48;13.70;99.90
10468;DHT22;5281;48.878;9.394;2023-08-30T01:43:16;13.60;99.90
10468;DHT22;5281;48.878;9.394;2023-08-30T01:45:44;13.60;99.90
10468;DHT22;5281;48.878;9.394;2023-08-30T01:48:13;13.50;99.90
10468;DHT22;5281;48.878;9.394;2023-08-30T01:50:41;13.50;99.90
10468;DHT22;5281;48.878;9.394;2023-08-30T01:53:10;13.40;99.90
10468;DHT22;5281;48.878;9.394;2023-08-30T01:55:37;13.40;99.90
10468;DHT22;5281;48.878;9.394;2023-08-30T01:58:05;13.30;99.90
10468;DHT22;5281;48.878;9.394;2023-08-30T02:00:32;13.30;99.90
10468;DHT22;5281;48.878;9.394;2023-08-30T02:03:07;13.30;99.90
10468;DHT22;5281;48.878;9.394;2023-08-30T02:05:36;13.30;99.90
10468;DHT22;5281;48.878;9.394;2023-08-30T02:08:09;13.30;99.90
10468;DHT22;5281;48.878;9.394;2023-08-30T02:10:41;13.30;99.90
10468;DHT22;5281;48.878;9.394;2023-08-30T02:13:12;13.30;99.90
10468;DHT22;5281;48.878;9.394;2023-08-30T02:15:41;13.40;99.90
10468;DHT22;5281;48.878;9.394;2023-08-30T02:18:10;13.40;99.90
10468;DHT22;5281;48.878;9.394;2023-08-30T02:20:37;13.50;99.90
10468;DHT22;5281;48.878;9.394;2023-08-30T02:23:04;13.50;99.90
10468;DHT22;5281;48.878;9.394;2023-08-30T02:25:31;13.70;99.90
10468;DHT22;5281;48.878;9.394;2023-08-30T02:27:57;13.60;99.90
10468;DHT22;5281;48.878;9.394;2023-08-30T02:30:24;13.70;99.90
10468;DHT22;5281;48.878;9.394;2023-08-30T02:32:51;13.70;99.90
10468;DHT22;5281;48.878;9.394;2023-08-30T02:35:19;13.80;99.90
10468;DHT22;5281;48.878;9.394;2023-08-30T02:37:46;13.80;99.90
10468;DHT22;5281;48.878;9.394;2023-08-30T02:40:12;13.90;99.90
10468;DHT22;5281;48.878;9.394;2023-08-30T02:42:39;13.90;99.90
10468;DHT22;5281;48.878;9.394;2023-08-30T02:45:07;14.00;99.90
10468;DHT22;5281;48.878;9.394;2023-08-30T02:47:34;14.00;99.90
10468;DHT22;5281;48.878;9.394;2023-08-30T02:50:00;14.00;99.90
10468;DHT22;5281;48.878;9.394;2023-08-30T02:52:28;14.00;99.90
10468;DHT22;5281;48.878;9.394;2023-08-30T02:54:55;13.90;99.90
10468;DHT22;5281;48.878;9.394;2023-08-30T02:57:22;13.80;99.90
10468;DHT22;5281;48.878;9.394;2023-08-30T02:59:49;13.60;99.90
10468;DHT22;5281;48.878;9.394;2023-08-30T03:02:15;13.50;99.90
10468;DHT22;5281;48.878;9.394;2023-08-30T03:04:42;13.40;99.90
10468;DHT22;5281;48.878;9.394;2023-08-30T03:07:09;13.30;99.90
10468;DHT22;5281;48.878;9.394;2023-08-30T03:09:37;13.20;99.90
10468;DHT22;5281;48.878;9.394;2023-08-30T03:12:05;13.10;99.90
10468;DHT22;5281;48.878;9.394;2023-08-30T03:14:32;13.10;99.90
10468;DHT22;5281;48.878;9.394;2023-08-30T03:16:58;13.00;99.90
10468;DHT22;5281;48.878;9.394;2023-08-30T03:19:25;13.00;99.90
10468;DHT22;5281;48.878;9.394;2023-08-30T03:21:52;13.00;99.90
10468;DHT22;5281;48.878;9.394;2023-08-30T03:24:19;13.00;99.90
10468;DHT22;5281;48.878;9.394;2023-08-30T03:26:47;13.10;99.90
10468;DHT22;5281;48.878;9.394;2023-08-30T03:29:13;13.20;99.90
10468;DHT22;5281;48.878;9.394;2023-08-30T03:31:40;13.30;99.90
10468;DHT22;5281;48.878;9.394;2023-08-30T03:34:08;13.40;99.90
10468;DHT22;5281;48.878;9.394;2023-08-30T03:36:35;13.50;99.90
10468;DHT22;5281;48.878;9.394;2023-08-30T03:39:02;13.60;99.90
10468;DHT22;5281;48.878;9.394;2023-08-30T03:41:29;13.60;99.90
10468;DHT22;5281;48.878;9.394;2023-08-30T03:43:57;13.70;99.90
10468;DHT22;5281;48.878;9.394;2023-08-30T03:46:23;13.70;99.90
10468;DHT22;5281;48.878;9.394;2023-08-30T03:48:50;13.80;99.90
10468;DHT22;5281;48.878;9.394;2023-08-30T03:51:17;13.80;99.90
10468;DHT22;5281;48.878;9.394;2023-08-30T03:53:45;13.80;99.90
10468;DHT22;5281;48.878;9.394;2023-08-30T03:56:11;13.80;99.90
10468;DHT22;5281;48.878;9.394;2023-08-30T03:58:38;13.80;99.90
10468;DHT22;5281;48.878;9.394;2023-08-30T04:01:06;13.70;99.90
10468;DHT22;5281;48.878;9.394;2023-08-30T04:03:33;13.80;99.90
10468;DHT22;5281;48.878;9.394;2023-08-30T04:06:00;13.80;99.90
10468;DHT22;5281;48.878;9.394;2023-08-30T04:08:26;13.80;99.90
10468;DHT22;5281;48.878;9.394;2023-08-30T04:10:53;14.00;99.90
10468;DHT22;5281;48.878;9.394;2023-08-30T04:13:20;14.00;99.90
10468;DHT22;5281;48.878;9.394;2023-08-30T04:15:47;14.00;99.90
10468;DHT22;5281;48.878;9.394;2023-08-30T04:18:15;14.00;99.90
10468;DHT22;5281;48.878;9.394;2023-08-30T04:20:44;14.00;99.90
10468;DHT22;5281;48.878;9.394;2023-08-30T04:23:11;14.10;99.90
10468;DHT22;5281;48.878;9.394;2023-08-30T04:25:38;14.10;99.90
10468;DHT22;5281;48.878;9.394;2023-08-30T04:28:05;14.10;99.90
10468;DHT22;5281;48.878;9.394;2023-08-30T04:30:31;14.10;99.90
10468;DHT22;5281;48.878;9.394;2023-08-30T04:32:58;14.10;99.90
10468;DHT22;5281;48.878;9.394;2023-08-30T04:35:29;14.10;99.90
10468;DHT22;5281;48.878;9.394;2023-08-30T04:37:58;14.10;99.90
10468;DHT22;5281;48.878;9.394;2023-08-30T04:40:25;14.10;99.90
10468;DHT22;5281;48.878;9.394;2023-08-30T04:42:52;14.10;99.90
10468;DHT22;5281;48.878;9.394;2023-08-30T04:45:19;14.10;99.90
10468;DHT22;5281;48.878;9.394;2023-08-30T04:47:45;14.10;99.90
10468;DHT22;5281;48.878;9.394;2023-08-30T04:50:13;14.20;99.90
10468;DHT22;5281;48.878;9.394;2023-08-30T04:52:41;14.20;99.90
10468;DHT22;5281;48.878;9.394;2023-08-30T04:55:09;14.20;99.90
10468;DHT22;5281;48.878;9.394;2023-08-30T04:57:36;14.30;99.90
10468;DHT22;5281;48.878;9.394;2023-08-30T05:00:04;14.30;99.90
10468;DHT22;5281;48.878;9.394;2023-08-30T05:02:31;14.40;99.90
10468;DHT22;5281;48.878;9.394;2023-08-30T05:04:58;14.50;99.90
10468;DHT22;5281;48.878;9.394;2023-08-30T05:07:25;14.60;99.90
10468;DHT22;5281;48.878;9.394;2023-08-30T05:09:53;14.60;99.90
10468;DHT22;5281;48.878;9.394;2023-08-30T05:12:19;14.50;99.90
10468;DHT22;5281;48.878;9.394;2023-08-30T05:14:46;14.50;99.90
10468;DHT22;5281;48.878;9.394;2023-08-30T05:17:13;14.50;99.90
10468;DHT22;5281;48.878;9.394;2023-08-30T05:19:39;14.50;99.90
10468;DHT22;5281;48.878;9.394;2023-08-30T05:22:06;14.50;99.90
10468;DHT22;5281;48.878;9.394;2023-08-30T05:24:33;14.40;99.90
10468;DHT22;5281;48.878;9.394;2023-08-30T05:27:02;14.30;99.90
10468;DHT22;5281;48.878;9.394;2023-08-30T05:29:28;14.30;99.90
10468;DHT22;5281;48.878;9.394;2023-08-30T05:31:55;14.30;99.90
10468;DHT22;5281;48.878;9.394;2023-08-30T05:34:22;14.30;99.90
10468;DHT22;5281;48.878;9.394;2023-08-30T05:36:49;14.20;99.90
10468;DHT22;5281;48.878;9.394;2023-08-30T05:39:15;14.30;99.90
10468;DHT22;5281;48.878;9.394;2023-08-30T05:41:42;14.40;99.90
10468;DHT22;5281;48.878;9.394;2023-08-30T05:44:10;14.40;99.90
10468;DHT22;5281;48.878;9.394;2023-08-30T05:46:37;14.60;99.90
10468;DHT22;5281;48.878;9.394;2023-08-30T05:49:04;14.70;99.90
10468;DHT22;5281;48.878;9.394;2023-08-30T05:51:30;14.80;99.90
10468;DHT22;5281;48.878;9.394;2023-08-30T05:53:57;14.90;99.90
10468;DHT22;5281;48.878;9.394;2023-08-30T05:56:24;15.00;99.90
10468;DHT22;5281;48.878;9.394;2023-08-30T05:58:51;15.10;99.90
10468;DHT22;5281;48.878;9.394;2023-08-30T06:01:19;15.20;99.90
10468;DHT22;5281;48.878;9.394;2023-08-30T06:03:46;15.40;99.90
10468;DHT22;5281;48.878;9.394;2023-08-30T06:06:13;15.40;99.90
10468;DHT22;5281;48.878;9.394;2023-08-30T06:08:39;15.50;99.90
10468;DHT22;5281;48.878;9.394;2023-08-30T06:11:06;15.50;99.90
10468;DHT22;5281;48.878;9.394;2023-08-30T06:13:33;15.60;99.90
10468;DHT22;5281;48.878;9.394;2023-08-30T06:15:59;15.60;99.90
10468;DHT22;5281;48.878;9.394;2023-08-30T06:18:30;15.60;99.90
10468;DHT22;5281;48.878;9.394;2023-08-30T06:20:57;15.60;99.90
10468;DHT22;5281;48.878;9.394;2023-08-30T06:23:24;15.50;99.90
10468;DHT22;5281;48.878;9.394;2023-08-30T06:25:54;15.40;99.90
10468;DHT22;5281;48.878;9.394;2023-08-30T06:28:20;15.50;99.90
10468;DHT22;5281;48.878;9.394;2023-08-30T06:30:47;15.50;99.90
10468;DHT22;5281;48.878;9.394;2023-08-30T06:33:14;15.50;99.90
10468;DHT22;5281;48.878;9.394;2023-08-30T06:35:42;15.50;99.90
10468;DHT22;5281;48.878;9.394;2023-08-30T06:38:09;15.60;99.90
10468;DHT22;5281;48.878;9.394;2023-08-30T06:40:36;15.60;99.90
10468;DHT22;5281;48.878;9.394;2023-08-30T06:43:03;15.70;99.90
10468;DHT22;5281;48.878;9.394;2023-08-30T06:45:29;15.80;99.90
10468;DHT22;5281;48.878;9.394;2023-08-30T06:47:56;16.00;99.90
10468;DHT22;5281;48.878;9.394;2023-08-30T06:50:23;16.20;99.90
10468;DHT22;5281;48.878;9.394;2023-08-30T06:52:51;16.30;99.90
10468;DHT22;5281;48.878;9.394;2023-08-30T06:55:18;16.50;99.90
10468;DHT22;5281;48.878;9.394;2023-08-30T06:57:48;16.60;99.90
10468;DHT22;5281;48.878;9.394;2023-08-30T07:00:16;16.80;99.90
10468;DHT22;5281;48.878;9.394;2023-08-30T07:02:43;16.90;99.90
10468;DHT22;5281;48.878;9.394;2023-08-30T07:05:11;17.00;99.90
10468;DHT22;5281;48.878;9.394;2023-08-30T07:07:37;17.10;99.90
10468;DHT22;5281;48.878;9.394;2023-08-30T07:10:06;17.30;99.90
10468;DHT22;5281;48.878;9.394;2023-08-30T07:12:33;17.50;99.90
10468;DHT22;5281;48.878;9.394;2023-08-30T07:15:01;17.60;99.90
10468;DHT22;5281;48.878;9.394;2023-08-30T07:17:29;17.70;99.90
10468;DHT22;5281;48.878;9.394;2023-08-30T07:19:55;17.70;99.90
10468;DHT22;5281;48.878;9.394;2023-08-30T07:22:22;17.80;99.90
10468;DHT22;5281;48.878;9.394;2023-08-30T07:24:49;17.90;99.90
10468;DHT22;5281;48.878;9.394;2023-08-30T07:27:17;18.10;99.90
10468;DHT22;5281;48.878;9.394;2023-08-30T07:29:44;18.20;99.90
10468;DHT22;5281;48.878;9.394;2023-08-30T07:32:11;18.30;99.90
10468;DHT22;5281;48.878;9.394;2023-08-30T07:34:37;18.40;99.90
10468;DHT22;5281;48.878;9.394;2023-08-30T07:37:04;18.50;99.90
10468;DHT22;5281;48.878;9.394;2023-08-30T07:39:31;18.70;99.90
10468;DHT22;5281;48.878;9.394;2023-08-30T07:41:58;18.90;99.90
10468;DHT22;5281;48.878;9.394;2023-08-30T07:44:26;19.10;99.90
10468;DHT22;5281;48.878;9.394;2023-08-30T07:46:52;19.40;99.90
10468;DHT22;5281;48.878;9.394;2023-08-30T07:49:19;19.70;99.90
10468;DHT22;5281;48.878;9.394;2023-08-30T07:51:46;20.00;99.90
10468;DHT22;5281;48.878;9.394;2023-08-30T07:54:12;20.30;99.90
10468;DHT22;5281;48.878;9.394;2023-08-30T07:56:39;20.40;99.90
10468;DHT22;5281;48.878;9.394;2023-08-30T07:59:06;20.60;99.90
10468;DHT22;5281;48.878;9.394;2023-08-30T08:01:34;20.70;99.90
10468;DHT22;5281;48.878;9.394;2023-08-30T08:04:01;20.80;99.90
10468;DHT22;5281;48.878;9.394;2023-08-30T08:06:28;20.70;99.90
10468;DHT22;5281;48.878;9.394;2023-08-30T08:08:54;20.80;99.90
10468;DHT22;5281;48.878;9.394;2023-08-30T08:11:21;20.90;99.90
10468;DHT22;5281;48.878;9.394;2023-08-30T08:13:48;21.20;99.90
10468;DHT22;5281;48.878;9.394;2023-08-30T08:16:14;21.50;99.90
10468;DHT22;5281;48.878;9.394;2023-08-30T08:18:42;21.60;99.90
10468;DHT22;5281;48.878;9.394;2023-08-30T08:21:09;21.80;99.90
10468;DHT22;5281;48.878;9.394;2023-08-30T08:23:36;21.90;99.90
10468;DHT22;5281;48.878;9.394;2023-08-30T08:26:02;21.90;99.90
10468;DHT22;5281;48.878;9.394;2023-08-30T08:28:29;22.00;99.90
10468;DHT22;5281;48.878;9.394;2023-08-30T08:30:56;22.00;99.90
10468;DHT22;5281;48.878;9.394;2023-08-30T08:33:22;22.20;99.90
10468;DHT22;5281;48.878;9.394;2023-08-30T08:35:51;22.50;99.90
10468;DHT22;5281;48.878;9.394;2023-08-30T08:38:17;22.40;99.90
10468;DHT22;5281;48.878;9.394;2023-08-30T08:40:44;22.30;99.90
10468;DHT22;5281;48.878;9.394;2023-08-30T08:43:11;22.30;99.90
10468;DHT22;5281;48.878;9.394;2023-08-30T08:45:38;22.40;99.90
10468;DHT22;5281;48.878;9.394;2023-08-30T08:48:06;22.60;99.90
10468;DHT22;5281;48.878;9.394;2023-08-30T08:50:34;22.50;99.90
10468;DHT22;5281;48.878;9.394;2023-08-30T08:53:03;22.40;99.90
10468;DHT22;5281;48.878;9.394;2023-08-30T08:55:31;22.40;99.90
10468;DHT22;5281;48.878;9.394;2023-08-30T08:58:00;22.40;99.90
10468;DHT22;5281;48.878;9.394;2023-08-30T09:00:30;22.50;99.90
10468;DHT22;5281;48.878;9.394;2023-08-30T09:02:57;22.70;99.90
10468;DHT22;5281;48.878;9.394;2023-08-30T09:05:24;22.90;99.90
10468;DHT22;5281;48.878;9.394;2023-08-30T09:07:51;22.90;99.90
10468;DHT22;5281;48.878;9.394;2023-08-30T09:10:21;23.00;99.90
10468;DHT22;5281;48.878;9.394;2023-08-30T09:12:48;23.20;99.90
10468;DHT22;5281;48.878;9.394;2023-08-30T09:15:14;23.40;99.90
10468;DHT22;5281;48.878;9.394;2023-08-30T09:17:41;23.60;99.90
10468;DHT22;5281;48.878;9.394;2023-08-30T09:20:10;23.50;99.90
10468;DHT22;5281;48.878;9.394;2023-08-30T09:22:40;23.40;99.90
10468;DHT22;5281;48.878;9.394;2023-08-30T09:25:09;23.40;99.90
10468;DHT22;5281;48.878;9.394;2023-08-30T09:27:37;23.50;99.90
10468;DHT22;5281;48.878;9.394;2023-08-30T09:30:07;23.70;99.90
10468;DHT22;5281;48.878;9.394;2023-08-30T09:32:39;23.70;99.90
10468;DHT22;5281;48.878;9.394;2023-08-30T09:35:07;23.80;99.90
10468;DHT22;5281;48.878;9.394;2023-08-30T09:37:34;23.80;99.90
10468;DHT22;5281;48.878;9.394;2023-08-30T09:40:01;23.80;99.90
10468;DHT22;5281;48.878;9.394;2023-08-30T09:42:28;23.90;99.90
10468;DHT22;5281;48.878;9.394;2023-08-30T09:44:57;24.00;99.90
10468;DHT22;5281;48.878;9.394;2023-08-30T09:47:24;24.10;99.90
10468;DHT22;5281;48.878;9.394;2023-08-30T09:49:55;24.00;99.90
10468;DHT22;5281;48.878;9.394;2023-08-30T09:52:24;23.90;99.90
10468;DHT22;5281;48.878;9.394;2023-08-30T09:54:51;23.80;99.90
10468;DHT22;5281;48.878;9.394;2023-08-30T09:57:19;23.70;99.90
10468;DHT22;5281;48.878;9.394;2023-08-30T09:59:48;23.70;99.90
10468;DHT22;5281;48.878;9.394;2023-08-30T10:02:17;23.70;99.90
10468;DHT22;5281;48.878;9.394;2023-08-30T10:04:45;23.80;99.90
10468;DHT22;5281;48.878;9.394;2023-08-30T10:07:12;23.90;99.90
10468;DHT22;5281;48.878;9.394;2023-08-30T10:09:40;23.90;99.90
10468;DHT22;5281;48.878;9.394;2023-08-30T10:12:07;23.90;99.90
10468;DHT22;5281;48.878;9.394;2023-08-30T10:14:34;23.90;99.90
10468;DHT22;5281;48.878;9.394;2023-08-30T10:17:03;23.90;99.90
10468;DHT22;5281;48.878;9.394;2023-08-30T10:19:32;23.90;99.90
10468;DHT22;5281;48.878;9.394;2023-08-30T10:22:01;23.90;99.90
10468;DHT22;5281;48.878;9.394;2023-08-30T10:24:31;23.80;99.90
10468;DHT22;5281;48.878;9.394;2023-08-30T10:27:00;23.80;99.90
10468;DHT22;5281;48.878;9.394;2023-08-30T10:29:30;23.90;99.90
10468;DHT22;5281;48.878;9.394;2023-08-30T10:32:02;23.90;99.90
10468;DHT22;5281;48.878;9.394;2023-08-30T10:34:33;23.90;99.90
10468;DHT22;5281;48.878;9.394;2023-08-30T10:37:02;24.00;99.90
10468;DHT22;5281;48.878;9.394;2023-08-30T10:39:36;24.00;99.90
10468;DHT22;5281;48.878;9.394;2023-08-30T10:42:08;24.00;99.90
10468;DHT22;5281;48.878;9.394;2023-08-30T10:44:46;24.10;99.90
10468;DHT22;5281;48.878;9.394;2023-08-30T10:47:18;24.20;99.90
10468;DHT22;5281;48.878;9.394;2023-08-30T10:49:47;24.30;99.90
10468;DHT22;5281;48.878;9.394;2023-08-30T10:52:15;24.30;99.90
10468;DHT22;5281;48.878;9.394;2023-08-30T10:54:41;24.20;99.90
10468;DHT22;5281;48.878;9.394;2023-08-30T10:57:13;24.20;99.90
10468;DHT22;5281;48.878;9.394;2023-08-30T10:59:40;24.30;99.90
10468;DHT22;5281;48.878;9.394;2023-08-30T11:02:07;24.50;99.90
10468;DHT22;5281;48.878;9.394;2023-08-30T11:04:39;24.50;99.90
10468;DHT22;5281;48.878;9.394;2023-08-30T11:07:08;24.60;99.90
10468;DHT22;5281;48.878;9.394;2023-08-30T11:09:37;24.50;99.90
10468;DHT22;5281;48.878;9.394;2023-08-30T11:12:06;24.50;99.90
10468;DHT22;5281;48.878;9.394;2023-08-30T11:14:33;24.60;99.90
10468;DHT22;5281;48.878;9.394;2023-08-30T11:16:59;24.70;99.90
10468;DHT22;5281;48.878;9.394;2023-08-30T11:19:29;24.70;99.90
10468;DHT22;5281;48.878;9.394;2023-08-30T11:21:56;24.50;99.90
10468;DHT22;5281;48.878;9.394;2023-08-30T11:24:24;24.40;99.90
10468;DHT22;5281;48.878;9.394;2023-08-30T11:26:53;24.50;99.90
10468;DHT22;5281;48.878;9.394;2023-08-30T11:29:20;24.50;99.90
10468;DHT22;5281;48.878;9.394;2023-08-30T11:31:46;24.60;99.90
10468;DHT22;5281;48.878;9.394;2023-08-30T11:34:13;24.60;99.90
10468;DHT22;5281;48.878;9.394;2023-08-30T11:36:40;24.80;99.90
10468;DHT22;5281;48.878;9.394;2023-08-30T11:39:07;25.00;99.90
10468;DHT22;5281;48.878;9.394;2023-08-30T11:41:37;25.10;99.90
10468;DHT22;5281;48.878;9.394;2023-08-30T11:44:05;25.30;99.90
10468;DHT22;5281;48.878;9.394;2023-08-30T11:46:31;25.40;99.90
10468;DHT22;5281;48.878;9.394;2023-08-30T11:48:58;25.40;99.90
10468;DHT22;5281;48.878;9.394;2023-08-30T11:51:25;25.50;99.90
10468;DHT22;5281;48.878;9.394;2023-08-30T11:53:52;25.50;99.90
10468;DHT22;5281;48.878;9.394;2023-08-30T11:56:19;25.30;99.90
10468;DHT22;5281;48.878;9.394;2023-08-30T11:58:47;25.00;99.90
10468;DHT22;5281;48.878;9.394;2023-08-30T12:01:14;24.80;99.90
10468;DHT22;5281;48.878;9.394;2023-08-30T12:03:41;24.90;99.90
10468;DHT22;5281;48.878;9.394;2023-08-30T12:06:11;25.00;99.90
10468;DHT22;5281;48.878;9.394;2023-08-30T12:08:38;25.20;99.90
10468;DHT22;5281;48.878;9.394;2023-08-30T12:11:05;25.20;99.90
10468;DHT22;5281;48.878;9.394;2023-08-30T12:13:33;25.20;99.90
10468;DHT22;5281;48.878;9.394;2023-08-30T12:16:02;25.20;99.90
10468;DHT22;5281;48.878;9.394;2023-08-30T12:18:32;25.00;99.90
10468;DHT22;5281;48.878;9.394;2023-08-30T12:21:00;24.50;99.90
10468;DHT22;5281;48.878;9.394;2023-08-30T12:23:28;24.30;99.90
10468;DHT22;5281;48.878;9.394;2023-08-30T12:26:02;24.00;99.90
10468;DHT22;5281;48.878;9.394;2023-08-30T12:28:31;23.50;99.90
10468;DHT22;5281;48.878;9.394;2023-08-30T12:30:59;23.30;99.90
10468;DHT22;5281;48.878;9.394;2023-08-30T12:33:27;23.20;99.90
10468;DHT22;5281;48.878;9.394;2023-08-30T12:35:54;23.10;99.90
10468;DHT22;5281;48.878;9.394;2023-08-30T12:38:21;22.80;99.90
10468;DHT22;5281;48.878;9.394;2023-08-30T12:40:49;22.50;99.90
10468;DHT22;5281;48.878;9.394;2023-08-30T12:43:16;22.20;99.90
10468;DHT22;5281;48.878;9.394;2023-08-30T12:45:44;21.90;99.90
10468;DHT22;5281;48.878;9.394;2023-08-30T12:48:12;21.60;99.90
10468;DHT22;5281;48.878;9.394;2023-08-30T12:50:43;21.50;99.90
10468;DHT22;5281;48.878;9.394;2023-08-30T12:53:10;21.30;99.90
10468;DHT22;5281;48.878;9.394;2023-08-30T12:55:37;21.30;99.90
10468;DHT22;5281;48.878;9.394;2023-08-30T12:58:06;21.40;99.90
10468;DHT22;5281;48.878;9.394;2023-08-30T13:00:34;21.60;99.90
10468;DHT22;5281;48.878;9.394;2023-08-30T13:03:00;21.60;99.90
10468;DHT22;5281;48.878;9.394;2023-08-30T13:05:28;21.70;99.90
10468;DHT22;5281;48.878;9.394;2023-08-30T13:07:57;21.70;99.90
10468;DHT22;5281;48.878;9.394;2023-08-30T13:10:24;21.70;99.90
10468;DHT22;5281;48.878;9.394;2023-08-30T13:12:50;21.90;99.90
10468;DHT22;5281;48.878;9.394;2023-08-30T13:15:17;22.10;99.90
10468;DHT22;5281;48.878;9.394;2023-08-30T13:17:44;22.20;99.90
10468;DHT22;5281;48.878;9.394;2023-08-30T13:20:11;22.30;99.90
10468;DHT22;5281;48.878;9.394;2023-08-30T13:22:38;22.40;99.90
10468;DHT22;5281;48.878;9.394;2023-08-30T13:25:06;22.50;99.90
10468;DHT22;5281;48.878;9.394;2023-08-30T13:27:34;22.80;99.90
10468;DHT22;5281;48.878;9.394;2023-08-30T13:30:01;23.10;99.90
10468;DHT22;5281;48.878;9.394;2023-08-30T13:32:28;23.30;99.90
10468;DHT22;5281;48.878;9.394;2023-08-30T13:34:54;23.50;99.90
10468;DHT22;5281;48.878;9.394;2023-08-30T13:37:21;23.60;99.90
10468;DHT22;5281;48.878;9.394;2023-08-30T13:39:48;23.80;99.90
10468;DHT22;5281;48.878;9.394;2023-08-30T13:42:16;23.80;99.90
10468;DHT22;5281;48.878;9.394;2023-08-30T13:44:43;23.90;99.90
10468;DHT22;5281;48.878;9.394;2023-08-30T13:47:10;24.10;99.90
10468;DHT22;5281;48.878;9.394;2023-08-30T13:49:38;24.20;99.90
10468;DHT22;5281;48.878;9.394;2023-08-30T13:52:05;24.40;99.90
10468;DHT22;5281;48.878;9.394;2023-08-30T13:54:32;24.40;99.90
10468;DHT22;5281;48.878;9.394;2023-08-30T13:56:59;24.40;99.90
10468;DHT22;5281;48.878;9.394;2023-08-30T13:59:27;24.20;99.90
10468;DHT22;5281;48.878;9.394;2023-08-30T14:01:55;24.00;99.90
10468;DHT22;5281;48.878;9.394;2023-08-30T14:04:23;23.90;99.90
10468;DHT22;5281;48.878;9.394;2023-08-30T14:06:51;23.80;99.90
10468;DHT22;5281;48.878;9.394;2023-08-30T14:09:17;23.80;99.90
10468;DHT22;5281;48.878;9.394;2023-08-30T14:11:44;23.70;99.90
10468;DHT22;5281;48.878;9.394;2023-08-30T14:14:11;23.70;99.90
10468;DHT22;5281;48.878;9.394;2023-08-30T14:16:39;23.60;99.90
10468;DHT22;5281;48.878;9.394;2023-08-30T14:19:06;23.70;99.90
10468;DHT22;5281;48.878;9.394;2023-08-30T14:21:32;23.50;99.90
10468;DHT22;5281;48.878;9.394;2023-08-30T14:23:59;23.40;99.90
10468;DHT22;5281;48.878;9.394;2023-08-30T14:26:27;23.40;99.90
10468;DHT22;5281;48.878;9.394;2023-08-30T14:28:54;23.30;99.90
10468;DHT22;5281;48.878;9.394;2023-08-30T14:31:21;23.20;99.90
10468;DHT22;5281;48.878;9.394;2023-08-30T14:33:49;23.20;99.90
10468;DHT22;5281;48.878;9.394;2023-08-30T14:36:15;23.20;99.90
10468;DHT22;5281;48.878;9.394;2023-08-30T14:38:42;23.30;99.90
10468;DHT22;5281;48.878;9.394;2023-08-30T14:41:09;23.30;99.90
10468;DHT22;5281;48.878;9.394;2023-08-30T14:43:35;23.30;99.90
10468;DHT22;5281;48.878;9.394;2023-08-30T14:46:03;23.30;99.90
10468;DHT22;5281;48.878;9.394;2023-08-30T14:48:31;23.40;99.90
10468;DHT22;5281;48.878;9.394;2023-08-30T14:50:59;23.40;99.90
10468;DHT22;5281;48.878;9.394;2023-08-30T14:53:26;23.40;99.90
10468;DHT22;5281;48.878;9.394;2023-08-30T14:55:53;23.40;99.90
10468;DHT22;5281;48.878;9.394;2023-08-30T14:58:20;23.30;99.90
10468;DHT22;5281;48.878;9.394;2023-08-30T15:00:47;23.10;99.90
10468;DHT22;5281;48.878;9.394;2023-08-30T15:03:14;23.10;99.90
10468;DHT22;5281;48.878;9.394;2023-08-30T15:05:41;23.00;99.90
10468;DHT22;5281;48.878;9.394;2023-08-30T15:08:09;23.00;99.90
10468;DHT22;5281;48.878;9.394;2023-08-30T15:10:36;22.80;99.90
10468;DHT22;5281;48.878;9.394;2023-08-30T15:13:03;22.70;99.90
10468;DHT22;5281;48.878;9.394;2023-08-30T15:15:30;22.50;99.90
10468;DHT22;5281;48.878;9.394;2023-08-30T15:17:57;22.40;99.90
10468;DHT22;5281;48.878;9.394;2023-08-30T15:20:23;22.20;99.90
10468;DHT22;5281;48.878;9.394;2023-08-30T15:22:51;22.10;99.90
10468;DHT22;5281;48.878;9.394;2023-08-30T15:25:19;21.80;99.90
10468;DHT22;5281;48.878;9.394;2023-08-30T15:27:46;21.70;99.90
10468;DHT22;5281;48.878;9.394;2023-08-30T15:30:13;21.60;99.90
10468;DHT22;5281;48.878;9.394;2023-08-30T15:32:40;21.50;99.90
10468;DHT22;5281;48.878;9.394;2023-08-30T15:35:08;21.50;99.90
10468;DHT22;5281;48.878;9.394;2023-08-30T15:37:35;21.60;99.90
10468;DHT22;5281;48.878;9.394;2023-08-30T15:40:03;21.60;99.90
10468;DHT22;5281;48.878;9.394;2023-08-30T15:42:32;21.70;99.90
10468;DHT22;5281;48.878;9.394;2023-08-30T15:44:59;21.70;99.90
10468;DHT22;5281;48.878;9.394;2023-08-30T15:47:26;21.80;99.90